Kahlotus, Washington
Current Conditions -  °F | °C
As of 1:53 AM on Thursday 23 Oct 2014 (Local Time) from KPSC Reporting Station
Overcast Overcast  
Wind Chill: 62°   Ceiling: 9500
Heat Index: 62°   Visibility: 10mi
Dew Point: 50°   Wind: 14mph
Humidity: 65%   Direction: 250°WSW
Pressure: 29.77"   Gusts: NA
Location:  46.64°N, 118.56°W
Report Text: KPSC 230853Z AUTO 25012KT 10SM FEW060 BKN095 OVC120 17/10 A2977 RMK AO2 SLP077 T01670100 53020
Loading
Personal Weather Stations






























Interactive Weather Map
Tropical Storm Tracking
New forecast layout! Learn more

10-Day Weather Forecast

Advertisements
Track Severe Weather on mobile